Airfield :
LOGIN :

Register | Disclaimer

   EN    FR    IT 

 










Legend :    VFR   Marginal VFR   IFR   Intensive IFR   Very Intensive IFR
Visi :
Ceiling :
>= 8 km
>= 3000ft
5 to 8 km
1000 to 3000 ft
1500m to 5 km
500 to 1000 ft
800 to 1500m
200 to 500 ft
< 800m
< 200 ft
Symbols :   Thunderstorms  Fog  Heavy snow  Heavy precipitations  Wind > 20 kt
SIGMETs :     Misc.  Thunderstorms  Icing  Turbulence  Mountain Waves  Volcanic Ashes






- Airport Elevation : 659 ft
- IATA code : LGG


EBLG - Liège

CURRENT METAR :
  • 121320Z 19016G27KT 9999 BKN018 04/01 Q0998 NOSIG

EXPIRED METARs :
  • 121250Z 19014KT 9999 BKN017 04/01 Q0999 NOSIG
  • 121220Z 19015KT 9999 SCT017 04/00 Q1000 NOSIG
  • 121150Z 19016KT 9999 SCT017 04/01 Q1000 NOSIG
  • 121120Z 19014KT 9999 SCT015 04/01 Q1001 NOSIG

TAF TAF EBLG
Valid from the 12 at 12:00 until the 13 at 18:00 UTC


121106Z 1212/1318 18012KT 9999 SCT030
TEMPO 1217/1301 17015G25KT
TEMPO 1221/1224 4500 RA BKN014
PROB30
TEMPO 1222/1224 4000 -RASN
BECMG 1303/1305 25013KT
PROB30
TEMPO 1305/1318 25015G25KT 4500 RA SHRA BKN014CB



MET'MAP, your aeronautical weather chart ! - Copyright ORBIFLY December 2007 - Disclaimer

ORBIFLY MET'MAP TEAM :

Programming & Development : Alexandra Zaïnal
Concept & original design : Baudouin d'Aumeries
Assistance for programming : Marc-Olivier Méhu
Technical & hardware support : Manuel Goepfert

Contact : metmap@orbifly.com




SOURCES & CREDITS :

   NOAA